Time;durP1;ratioP1;P1;durP2;ratioP2;P2;SDS_P1;SDS_P2;PMS_P1;PMS_P2;Temp;Humidity;BMP_temperature;BMP_pressure;BME280_temperature;BME280_humidity;BME280_pressure;Samples;Min_cycle;Max_cycle;Signal;HPM_P1;HPM_P2
2022/03/07 00:01:29;;;;;;;11.60;9.97;;;;;;;0.36;100.00;96591.00;5015555;28;101789;-66
2022/03/07 00:03:58;;;;;;;11.97;9.97;;;;;;;0.32;100.00;96594.97;5010490;28;105160;-67
2022/03/07 00:06:25;;;;;;;13.33;10.67;;;;;;;0.34;100.00;96593.00;5012152;28;101850;-67
2022/03/07 00:08:52;;;;;;;12.60;10.13;;;;;;;0.36;100.00;96596.25;5010817;28;105902;-67
2022/03/07 00:11:19;;;;;;;12.20;10.30;;;;;;;0.35;100.00;96589.38;5010427;28;105315;-66
2022/03/07 00:13:47;;;;;;;11.40;9.93;;;;;;;0.34;100.00;96598.25;5011015;28;101825;-67
2022/03/07 00:16:15;;;;;;;11.87;9.90;;;;;;;0.30;100.00;96597.78;5011668;28;105285;-66
2022/03/07 00:18:42;;;;;;;13.43;10.33;;;;;;;0.22;100.00;96594.47;5011515;28;105345;-66
2022/03/07 00:21:10;;;;;;;11.47;9.63;;;;;;;0.21;100.00;96600.66;5010615;28;102497;-67
2022/03/07 00:23:38;;;;;;;11.90;10.17;;;;;;;0.16;100.00;96598.59;5048042;27;105471;-66
2022/03/07 00:26:05;;;;;;;11.23;9.83;;;;;;;0.17;100.00;96597.59;5010786;28;102007;-66
2022/03/07 00:28:34;;;;;;;11.47;9.90;;;;;;;0.21;100.00;96595.44;5011113;28;104144;-66
2022/03/07 00:31:02;;;;;;;12.57;10.17;;;;;;;0.17;100.00;96602.03;5010324;28;106245;-66
2022/03/07 00:33:29;;;;;;;11.97;10.33;;;;;;;0.13;100.00;96591.09;5044276;27;101859;-66
2022/03/07 00:35:56;;;;;;;12.77;9.77;;;;;;;0.17;100.00;96597.59;5044015;27;104955;-66
2022/03/07 00:38:24;;;;;;;12.80;10.63;;;;;;;0.16;100.00;96596.00;5044610;27;104998;-67
2022/03/07 00:40:51;;;;;;;11.90;10.50;;;;;;;0.18;100.00;96598.44;5010561;28;102194;-67
2022/03/07 00:43:21;;;;;;;11.23;9.47;;;;;;;0.23;100.00;96601.31;5013456;28;103614;-67
2022/03/07 00:45:48;;;;;;;12.00;10.43;;;;;;;0.19;100.00;96600.03;5044705;27;101810;-66
2022/03/07 00:48:16;;;;;;;13.23;10.63;;;;;;;0.21;100.00;96603.28;5010186;28;105034;-66
2022/03/07 00:50:45;;;;;;;14.00;10.80;;;;;;;0.12;100.00;96601.78;5009880;28;105614;-66
2022/03/07 00:53:12;;;;;;;14.80;11.17;;;;;;;0.15;100.00;96596.16;5043882;27;101921;-66
2022/03/07 00:55:42;;;;;;;16.20;12.93;;;;;;;0.17;100.00;96597.59;5010246;28;104752;-66
2022/03/07 00:58:11;;;;;;;16.10;12.93;;;;;;;0.22;100.00;96595.25;5009647;28;105454;-66
2022/03/07 01:00:39;;;;;;;14.83;12.03;;;;;;;0.18;100.00;96594.00;5010120;28;101884;-66
2022/03/07 01:03:10;;;;;;;14.47;11.23;;;;;;;0.16;100.00;96592.53;5043641;27;104856;-66
2022/03/07 01:05:37;;;;;;;14.77;12.00;;;;;;;0.18;100.00;96593.19;5046763;27;105279;-66
2022/03/07 01:08:06;;;;;;;13.13;10.70;;;;;;;0.17;100.00;96588.97;5043927;27;103967;-67
2022/03/07 01:10:35;;;;;;;15.33;11.83;;;;;;;0.24;100.00;96595.09;5007723;28;106230;-67
2022/03/07 01:13:05;;;;;;;14.50;11.37;;;;;;;0.21;100.00;96592.81;5043250;27;101957;-67
2022/03/07 01:15:32;;;;;;;15.17;11.50;;;;;;;0.23;100.00;96596.09;5009882;28;104804;-66
2022/03/07 01:18:00;;;;;;;15.90;11.67;;;;;;;0.17;100.00;96595.00;5009321;28;105219;-66
2022/03/07 01:20:28;;;;;;;14.10;11.13;;;;;;;0.22;100.00;96594.47;5043688;27;102080;-66
2022/03/07 01:22:56;;;;;;;13.00;11.00;;;;;;;0.22;100.00;96595.25;5009683;28;105512;-66
2022/03/07 01:25:24;;;;;;;14.43;10.43;;;;;;;0.19;100.00;96587.78;5009351;28;105183;-66
2022/03/07 01:27:51;;;;;;;12.53;10.83;;;;;;;0.19;100.00;96590.41;5012809;28;101916;-66
2022/03/07 01:30:19;;;;;;;14.27;10.43;;;;;;;0.19;100.00;96589.59;5008654;28;106063;-66
2022/03/07 01:32:47;;;;;;;13.03;10.80;;;;;;;0.09;100.00;96595.09;5009468;28;101797;-67
2022/03/07 01:35:14;;;;;;;14.50;10.50;;;;;;;0.02;100.00;96588.16;5009591;28;105774;-67
2022/03/07 01:37:41;;;;;;;12.33;10.33;;;;;;;0.01;100.00;96591.75;5008676;28;104305;-66
2022/03/07 01:40:09;;;;;;;13.73;10.60;;;;;;;0.06;100.00;96592.03;5043238;27;102095;-66
2022/03/07 01:42:36;;;;;;;11.80;10.43;;;;;;;0.03;100.00;96584.53;5009583;28;104874;-66
2022/03/07 01:45:11;;;;;;;14.17;10.60;;;;;;;0.03;100.00;96584.53;5008958;28;105132;-67
2022/03/07 01:47:40;;;;;;;12.33;11.00;;;;;;;0.00;100.00;96585.72;5009196;28;101938;-66
2022/03/07 01:50:11;;;;;;;13.93;10.90;;;;;;;0.06;100.00;96594.66;5012422;28;104891;-66
2022/03/07 01:52:40;;;;;;;13.70;10.80;;;;;;;0.02;100.00;96583.72;5009299;28;102296;-66
2022/03/07 01:55:10;;;;;;;13.53;10.50;;;;;;;-0.02;100.00;96600.78;5009464;28;104628;-66
2022/03/07 01:57:44;;;;;;;13.10;10.27;;;;;;;-0.07;100.00;96599.69;5008779;28;104036;-66
2022/03/07 02:00:15;;;;;;;11.40;10.10;;;;;;;-0.15;100.00;96602.38;5008989;28;101835;-66
2022/03/07 02:02:44;;;;;;;12.43;10.37;;;;;;;-0.15;100.00;96591.94;5010754;28;102804;-66
2022/03/07 02:05:14;;;;;;;13.47;10.30;;;;;;;-0.17;100.00;96592.09;5008565;28;105258;-67
2022/03/07 02:07:45;;;;;;;11.63;9.97;;;;;;;-0.13;100.00;96595.16;5009152;28;101790;-67
2022/03/07 02:10:12;;;;;;;13.43;10.23;;;;;;;-0.22;100.00;96591.00;5009062;28;105713;-67
2022/03/07 02:12:43;;;;;;;13.00;11.23;;;;;;;-0.22;100.00;96584.00;5011787;28;105524;-66
2022/03/07 02:15:10;;;;;;;12.90;10.77;;;;;;;-0.18;100.00;96581.03;5042744;27;104856;-67
2022/03/07 02:17:38;;;;;;;14.20;11.07;;;;;;;-0.16;100.00;96579.88;5008381;28;105421;-66
2022/03/07 02:20:08;;;;;;;14.23;10.93;;;;;;;-0.17;100.00;96582.66;5008910;28;101998;-67
2022/03/07 02:22:37;;;;;;;13.33;11.33;;;;;;;-0.20;100.00;96579.38;5007886;28;105327;-66
2022/03/07 02:25:05;;;;;;;12.73;11.37;;;;;;;-0.16;100.00;96577.25;5007986;28;105491;-67
2022/03/07 02:27:35;;;;;;;12.67;11.27;;;;;;;-0.18;100.00;96581.03;5008677;28;101820;-67
2022/03/07 02:30:06;;;;;;;13.30;11.10;;;;;;;-0.18;100.00;96574.00;5008718;28;105307;-67
2022/03/07 02:32:36;;;;;;;12.00;9.90;;;;;;;-0.17;100.00;96574.81;5008229;28;105504;-66
2022/03/07 02:35:06;;;;;;;13.47;11.03;;;;;;;-0.20;100.00;96578.59;5012801;28;102141;-67
2022/03/07 02:37:34;;;;;;;13.73;10.87;;;;;;;-0.20;100.00;96575.97;5009388;28;102534;-67
2022/03/07 02:40:05;;;;;;;12.40;11.10;;;;;;;-0.21;100.00;96582.19;5042319;27;101925;-66
2022/03/07 02:42:33;;;;;;;12.77;10.87;;;;;;;-0.17;100.00;96579.03;5008587;28;105071;-66
2022/03/07 02:44:59;;;;;;;13.73;10.93;;;;;;;-0.22;100.00;96573.53;5007874;28;105441;-66
2022/03/07 02:47:27;;;;;;;13.10;11.07;;;;;;;-0.26;100.00;96585.31;5008412;28;101893;-66
2022/03/07 02:49:54;;;;;;;12.33;10.60;;;;;;;-0.24;100.00;96582.53;5008596;28;105375;-66
2022/03/07 02:52:21;;;;;;;13.37;11.20;;;;;;;-0.26;100.00;96589.75;5007754;28;105603;-66
2022/03/07 02:54:48;;;;;;;13.57;10.70;;;;;;;-0.24;100.00;96592.19;5011628;28;102136;-67
2022/03/07 02:57:16;;;;;;;14.40;11.93;;;;;;;-0.23;100.00;96589.38;5009246;28;102633;-66
2022/03/07 02:59:43;;;;;;;15.10;11.80;;;;;;;-0.23;100.00;96593.81;5007978;28;101877;-66
2022/03/07 03:02:10;;;;;;;13.90;10.97;;;;;;;-0.26;100.00;96585.31;5008125;28;103609;-66
2022/03/07 03:04:38;;;;;;;15.53;11.30;;;;;;;-0.22;100.00;96590.22;5007822;28;103683;-66
2022/03/07 03:07:06;;;;;;;16.00;12.80;;;;;;;-0.27;100.00;96588.16;5008086;28;101887;-67
2022/03/07 03:09:33;;;;;;;14.50;12.13;;;;;;;-0.26;100.00;96587.16;5008097;28;103735;-66
2022/03/07 03:12:01;;;;;;;14.03;12.07;;;;;;;-0.32;100.00;96595.72;5007550;28;105541;-66
2022/03/07 03:14:29;;;;;;;17.27;12.43;;;;;;;-0.29;100.00;96587.50;5041869;27;101857;-66
2022/03/07 03:16:56;;;;;;;18.43;12.70;;;;;;;-0.30;100.00;96596.31;5010939;28;105235;-66
2022/03/07 03:19:22;;;;;;;15.27;11.57;;;;;;;-0.34;100.00;96595.06;5009232;28;101823;-66
2022/03/07 03:21:49;;;;;;;15.10;11.80;;;;;;;-0.34;100.00;96596.88;5007626;28;105560;-66
2022/03/07 03:24:17;;;;;;;15.57;12.07;;;;;;;-0.35;100.00;96590.81;5007140;28;105109;-67
2022/03/07 03:26:44;;;;;;;13.83;11.13;;;;;;;-0.32;100.00;96593.09;5007502;28;101931;-66
2022/03/07 03:29:11;;;;;;;13.50;12.07;;;;;;;-0.37;100.00;96592.81;5007878;28;104991;-66
2022/03/07 03:31:39;;;;;;;12.80;11.10;;;;;;;-0.43;100.00;96597.91;5006931;28;103857;-67
2022/03/07 03:34:06;;;;;;;13.70;11.43;;;;;;;-0.38;100.00;96596.41;5008687;28;101839;-67
2022/03/07 03:36:34;;;;;;;16.40;12.50;;;;;;;-0.41;100.00;96591.53;5007617;28;105238;-66
2022/03/07 03:39:01;;;;;;;15.87;12.03;;;;;;;-0.42;100.00;96597.75;5012137;28;101731;-66
2022/03/07 03:41:29;;;;;;;13.97;11.43;;;;;;;-0.42;100.00;96595.94;5007691;28;105535;-66
2022/03/07 03:43:55;;;;;;;16.23;11.90;;;;;;;-0.44;100.00;96597.09;5007034;28;105335;-66
2022/03/07 03:46:22;;;;;;;15.13;11.80;;;;;;;-0.45;100.00;96600.69;5008995;28;102396;-66
2022/03/07 03:48:51;;;;;;;13.60;11.67;;;;;;;-0.47;100.00;96607.91;5009070;28;102850;-66
2022/03/07 03:51:17;;;;;;;15.87;12.13;;;;;;;-0.44;100.00;96596.31;5007111;28;105356;-67
2022/03/07 03:53:44;;;;;;;15.90;12.10;;;;;;;-0.36;100.00;96600.44;5007422;28;102154;-66
2022/03/07 03:56:11;;;;;;;14.17;11.60;;;;;;;-0.39;100.00;96607.84;5007380;28;104893;-66
2022/03/07 03:58:40;;;;;;;13.87;11.87;;;;;;;-0.43;100.00;96604.75;5007100;28;105734;-67
2022/03/07 04:01:07;;;;;;;16.90;12.23;;;;;;;-0.40;100.00;96608.81;5044804;27;101772;-66
2022/03/07 04:03:34;;;;;;;15.53;12.37;;;;;;;-0.38;100.00;96603.44;5006615;28;105509;-67
2022/03/07 04:06:04;;;;;;;14.10;12.23;;;;;;;-0.38;100.00;96604.25;5007422;28;101889;-67
2022/03/07 04:08:31;;;;;;;14.67;12.03;;;;;;;-0.38;100.00;96606.03;5007790;28;103587;-67
2022/03/07 04:10:58;;;;;;;15.13;12.27;;;;;;;-0.35;100.00;96601.28;5007061;28;105385;-67
2022/03/07 04:13:25;;;;;;;14.10;11.80;;;;;;;-0.43;100.00;96606.59;5007042;28;101849;-67
2022/03/07 04:15:52;;;;;;;17.10;12.60;;;;;;;-0.40;100.00;96608.81;5007121;28;103718;-66
2022/03/07 04:18:20;;;;;;;16.47;12.00;;;;;;;-0.47;100.00;96613.13;5006813;28;105927;-66
2022/03/07 04:20:47;;;;;;;14.67;11.90;;;;;;;-0.49;100.00;96615.13;5007390;28;101776;-67
2022/03/07 04:23:20;;;;;;;15.30;12.70;;;;;;;-0.43;100.00;96618.81;5009881;28;104044;-67
2022/03/07 04:25:48;;;;;;;14.03;11.87;;;;;;;-0.47;100.00;96613.13;5041055;27;102137;-67
2022/03/07 04:28:15;;;;;;;15.33;13.07;;;;;;;-0.45;100.00;96613.75;5007198;28;105570;-66
2022/03/07 04:30:42;;;;;;;16.20;12.70;;;;;;;-0.42;100.00;96610.81;5006212;28;105014;-66
2022/03/07 04:33:11;;;;;;;15.07;11.97;;;;;;;-0.46;100.00;96614.75;5007319;28;102038;-66
2022/03/07 04:35:38;;;;;;;15.33;12.27;;;;;;;-0.43;100.00;96614.41;5006988;28;105140;-66
2022/03/07 04:38:05;;;;;;;16.30;12.33;;;;;;;-0.46;100.00;96614.75;5006428;28;105383;-67
2022/03/07 04:40:34;;;;;;;17.17;13.40;;;;;;;-0.39;100.00;96602.59;5007170;28;101777;-67
2022/03/07 04:43:01;;;;;;;16.47;12.40;;;;;;;-0.36;100.00;96607.50;5006883;28;105176;-66
2022/03/07 04:45:28;;;;;;;16.43;12.13;;;;;;;-0.37;100.00;96598.03;5011443;28;102040;-66
2022/03/07 04:47:54;;;;;;;14.60;12.97;;;;;;;-0.32;100.00;96600.09;5010527;28;104859;-66
2022/03/07 04:50:21;;;;;;;15.60;13.50;;;;;;;-0.25;100.00;96599.22;5011065;28;102842;-66
2022/03/07 04:52:48;;;;;;;21.17;13.43;;;;;;;-0.22;100.00;96594.44;5010064;28;102081;-66
2022/03/07 04:55:15;;;;;;;16.73;12.80;;;;;;;-0.41;100.00;96596.75;5009940;28;105112;-66
2022/03/07 04:57:44;;;;;;;16.03;12.60;;;;;;;-0.30;100.00;96601.56;5009638;28;105420;-66
2022/03/07 05:00:14;;;;;;;14.10;11.87;;;;;;;-0.40;100.00;96600.19;5010108;28;101882;-68
2022/03/07 05:02:41;;;;;;;16.73;13.17;;;;;;;-0.47;100.00;96604.47;5025051;28;103914;-66
2022/03/07 05:05:09;;;;;;;16.27;12.90;;;;;;;-0.30;100.00;96596.31;5034322;28;102643;-66
2022/03/07 05:08:13;;;;;;;15.97;12.70;;;;;;;-0.28;100.00;96592.53;5030261;28;105165;-65
2022/03/07 05:14:04;;;;;;;13.77;11.63;;;;;;;-0.30;100.00;96588.50;5029429;28;101814;-66
2022/03/07 05:16:31;;;;;;;16.13;12.37;;;;;;;-0.32;100.00;96579.19;5031691;27;102567;-66
2022/03/07 05:19:27;;;;;;;13.87;11.23;;;;;;;-0.42;100.00;96589.91;5029387;28;105504;-66
2022/03/07 05:21:54;;;;;;;15.67;12.93;;;;;;;-0.47;100.00;96590.44;5010319;28;101803;-66
2022/03/07 05:24:20;;;;;;;15.10;12.10;;;;;;;-0.47;100.00;96587.81;5020638;28;103057;-66
2022/03/07 05:26:47;;;;;;;14.10;11.93;;;;;;;-0.43;100.00;96589.09;5030685;28;102790;-66
2022/03/07 05:29:26;;;;;;;17.63;13.93;;;;;;;-0.53;100.00;96592.13;5034914;28;101989;-66
2022/03/07 05:31:53;;;;;;;15.67;13.23;;;;;;;-0.58;100.00;96600.50;5030449;28;102660;-65
2022/03/07 05:34:20;;;;;;;16.40;12.87;;;;;;;-0.66;100.00;96592.72;5031050;28;101812;-65
2022/03/07 05:36:47;;;;;;;15.17;12.40;;;;;;;-0.61;100.00;96595.63;5029883;28;105129;-66
2022/03/07 05:39:47;;;;;;;16.33;13.20;;;;;;;-0.69;100.00;96593.09;5030705;28;102717;-66
2022/03/07 05:42:14;;;;;;;16.50;12.20;;;;;;;-0.68;100.00;96597.31;5030007;28;101874;-66
2022/03/07 05:44:44;;;;;;;17.37;13.43;;;;;;;-0.70;100.00;96603.72;5031421;28;103020;-67
2022/03/07 05:47:11;;;;;;;17.70;12.70;;;;;;;-0.75;100.00;96604.25;5030504;28;103188;-68
2022/03/07 05:49:55;;;;;;;17.33;13.50;;;;;;;-0.78;100.00;96607.19;5031209;28;101957;-67
2022/03/07 05:52:23;;;;;;;17.73;12.40;;;;;;;-0.81;100.00;96604.13;5034174;27;102770;-68
2022/03/07 05:54:50;;;;;;;15.43;12.80;;;;;;;-0.78;100.00;96606.41;5031141;27;101643;-67
2022/03/07 05:57:18;;;;;;;17.87;12.63;;;;;;;-0.74;100.00;96610.25;5029375;27;105099;-68
2022/03/07 05:59:46;;;;;;;13.93;12.43;;;;;;;-0.70;100.00;96603.72;5030582;28;103057;-67
2022/03/07 06:02:14;;;;;;;18.20;13.10;;;;;;;-0.72;100.00;96609.09;5029596;28;101897;-68
2022/03/07 06:04:41;;;;;;;15.57;12.60;;;;;;;-0.72;100.00;96609.09;5029487;28;103651;-68
2022/03/07 06:07:09;;;;;;;17.77;13.90;;;;;;;-0.69;100.00;96615.78;5028870;28;105023;-67
2022/03/07 06:10:06;;;;;;;19.43;13.17;;;;;;;-0.72;100.00;96624.75;5029361;28;101852;-68
2022/03/07 06:13:02;;;;;;;17.50;13.17;;;;;;;-0.71;100.00;96626.38;5009364;28;104757;-68
2022/03/07 06:15:31;;;;;;;19.47;13.73;;;;;;;-0.70;100.00;96630.66;5012002;28;105075;-68
2022/03/07 06:18:00;;;;;;;17.37;13.67;;;;;;;-0.69;100.00;96627.03;5009013;28;103773;-68
2022/03/07 06:20:27;;;;;;;15.37;13.43;;;;;;;-0.62;100.00;96629.78;5009648;28;101974;-67
2022/03/07 06:22:54;;;;;;;16.50;13.50;;;;;;;-0.63;100.00;96631.56;5008661;28;101990;-68
2022/03/07 06:25:22;;;;;;;18.47;13.77;;;;;;;-0.60;100.00;96628.56;5008992;28;105098;-68
2022/03/07 06:27:50;;;;;;;18.43;12.93;;;;;;;-0.53;100.00;96632.13;5007901;28;104614;-69
2022/03/07 06:30:17;;;;;;;15.83;12.97;;;;;;;-0.54;100.00;96625.28;5007049;28;101968;-68
2022/03/07 06:32:45;;;;;;;17.73;13.90;;;;;;;-0.47;100.00;96634.03;5009700;28;102414;-68
2022/03/07 06:35:12;;;;;;;16.53;13.17;;;;;;;-0.40;100.00;96634.94;5007718;28;105507;-68
2022/03/07 06:38:05;;;;;;;16.37;12.97;;;;;;;-0.35;100.00;96640.47;5045859;27;101977;-69
2022/03/07 06:40:32;;;;;;;17.90;12.87;;;;;;;-0.31;100.00;96644.34;5011752;28;105789;-68
2022/03/07 06:43:10;;;;;;;17.13;14.03;;;;;;;-0.22;100.00;96638.03;5030047;28;101915;-68
2022/03/07 06:45:37;;;;;;;17.73;13.67;;;;;;;-0.17;100.00;96640.94;5028849;28;105620;-68
2022/03/07 06:48:07;;;;;;;19.53;13.57;;;;;;;-0.06;100.00;96650.94;5027773;28;105012;-68
2022/03/07 06:50:34;;;;;;;15.57;13.80;;;;;;;0.01;100.00;96649.28;5028594;28;101893;-68
2022/03/07 06:53:02;;;;;;;17.77;13.63;;;;;;;-0.02;100.00;96655.66;5028392;28;105133;-68
2022/03/07 06:55:29;;;;;;;17.70;13.30;;;;;;;-0.11;100.00;96656.72;5028274;28;105440;-67
2022/03/07 06:57:56;;;;;;;17.87;13.57;;;;;;;-0.01;100.00;96659.06;5032076;28;101783;-68
2022/03/07 07:00:23;;;;;;;22.43;13.47;;;;;;;0.07;100.00;96653.78;5028138;28;103989;-68
2022/03/07 07:02:50;;;;;;;17.10;13.43;;;;;;;-0.02;100.00;96653.06;5027644;28;103217;-68
2022/03/07 07:05:19;;;;;;;15.93;13.37;;;;;;;0.12;100.00;96659.28;5028905;28;104273;-68
2022/03/07 07:08:08;;;;;;;18.33;13.93;;;;;;;0.20;100.00;96657.41;5028789;28;102639;-69
2022/03/07 07:10:35;;;;;;;18.77;13.27;;;;;;;0.18;100.00;96669.03;5028254;28;101783;-68
2022/03/07 07:13:02;;;;;;;15.23;12.27;;;;;;;0.41;100.00;96661.91;5028359;28;104962;-68
2022/03/07 07:15:30;;;;;;;19.13;13.90;;;;;;;0.45;100.00;96663.97;5027611;28;105844;-68
2022/03/07 07:18:04;;;;;;;16.17;13.67;;;;;;;0.42;100.00;96661.72;5028387;28;101842;-68
2022/03/07 07:20:32;;;;;;;17.13;13.63;;;;;;;0.46;100.00;96659.56;5031179;28;105270;-68
2022/03/07 07:23:00;;;;;;;15.63;13.60;;;;;;;0.56;100.00;96658.28;5028286;28;101844;-68
2022/03/07 07:25:27;;;;;;;15.87;12.80;;;;;;;0.75;100.00;96652.50;5029470;28;102383;-66
2022/03/07 07:28:00;;;;;;;16.20;12.53;;;;;;;0.79;100.00;96655.53;5027632;28;105394;-66
2022/03/07 07:30:26;;;;;;;15.33;12.20;;;;;;;0.80;100.00;96658.00;5028008;28;101897;-68
2022/03/07 07:32:54;;;;;;;15.13;12.80;;;;;;;0.76;100.00;96661.13;5027968;28;105083;-68
2022/03/07 07:35:21;;;;;;;16.03;13.43;;;;;;;0.98;100.00;96654.94;5027543;28;105579;-68
2022/03/07 07:37:58;;;;;;;17.10;13.17;;;;;;;0.92;100.00;96660.94;5029607;27;101812;-68
2022/03/07 07:40:25;;;;;;;15.40;13.47;;;;;;;0.93;100.00;96659.94;5028039;28;105199;-68
2022/03/07 07:42:52;;;;;;;15.37;13.50;;;;;;;1.01;99.84;96667.69;5031045;28;105809;-68
2022/03/07 07:45:19;;;;;;;13.47;11.93;;;;;;;1.29;100.00;96671.22;5027553;28;104858;-69
2022/03/07 07:48:19;;;;;;;14.50;12.77;;;;;;;1.21;100.00;96674.75;5027286;28;105715;-70
2022/03/07 07:50:46;;;;;;;17.83;13.20;;;;;;;1.31;99.88;96674.47;5027955;28;101787;-69
2022/03/07 07:53:14;;;;;;;16.93;13.33;;;;;;;1.64;100.00;96680.84;5028036;28;105550;-70
2022/03/07 07:55:40;;;;;;;16.73;12.43;;;;;;;1.68;97.08;96687.31;5028563;28;102598;-71
2022/03/07 08:01:30;;;;;;;15.03;12.83;;;;;;;1.67;94.19;96698.78;5027576;28;104892;-66
2022/03/07 08:03:58;;;;;;;15.57;12.53;;;;;;;1.80;98.91;96704.97;5027308;28;104150;-66
2022/03/07 08:06:25;;;;;;;14.83;13.10;;;;;;;1.92;97.42;96697.41;5031243;28;101991;-66
2022/03/07 08:08:58;;;;;;;14.80;12.83;;;;;;;1.85;93.40;96688.66;5027015;28;105621;-66
2022/03/07 08:11:26;;;;;;;14.40;12.00;;;;;;;1.87;95.37;96703.22;5027552;28;101898;-66
2022/03/07 08:13:53;;;;;;;15.20;13.17;;;;;;;1.93;92.79;96707.72;5007110;28;105282;-68
2022/03/07 08:16:21;;;;;;;14.77;12.70;;;;;;;1.82;91.44;96710.84;5006970;28;104911;-68
2022/03/07 08:18:51;;;;;;;17.13;13.40;;;;;;;1.83;98.32;96719.50;5019405;27;101958;-68
2022/03/07 08:21:21;;;;;;;16.90;12.33;;;;;;;1.73;91.27;96725.09;5030391;28;104883;-68
2022/03/07 08:23:48;;;;;;;14.33;12.50;;;;;;;1.84;92.43;96727.19;5030286;28;105922;-68
2022/03/07 08:26:17;;;;;;;16.40;12.93;;;;;;;2.26;97.30;96724.53;5030928;28;101897;-68
2022/03/07 08:29:12;;;;;;;16.10;13.10;;;;;;;2.41;86.86;96719.19;5033552;28;105354;-68
2022/03/07 08:31:38;;;;;;;16.50;12.30;;;;;;;2.11;86.65;96720.34;5030283;28;101898;-68
2022/03/07 08:34:06;;;;;;;16.47;13.43;;;;;;;2.02;90.42;96719.69;5030984;28;104921;-68
2022/03/07 08:36:33;;;;;;;15.07;12.20;;;;;;;2.03;87.91;96733.63;5030473;28;105090;-68
2022/03/07 08:39:35;;;;;;;16.47;13.37;;;;;;;2.02;89.93;96724.13;5032451;28;102014;-68
2022/03/07 08:42:04;;;;;;;16.13;13.20;;;;;;;1.82;89.08;96723.97;5030939;28;105533;-68
2022/03/07 08:44:30;;;;;;;16.20;12.93;;;;;;;1.99;87.19;96729.75;5030104;28;105317;-68
2022/03/07 08:46:57;;;;;;;15.17;13.33;;;;;;;2.27;87.61;96722.69;5030791;28;101908;-68
2022/03/07 08:49:51;;;;;;;16.47;13.17;;;;;;;2.39;83.40;96732.50;5030635;28;105309;-68
2022/03/07 08:52:18;;;;;;;21.53;13.00;;;;;;;2.54;85.35;96733.22;5046947;27;105868;-68
2022/03/07 08:54:46;;;;;;;15.00;13.40;;;;;;;2.55;82.70;96732.19;5010555;28;104911;-68
2022/03/07 08:57:15;;;;;;;16.03;12.47;;;;;;;2.34;83.92;96734.06;5009735;28;105325;-68
2022/03/07 09:00:34;;;;;;;14.57;13.00;;;;;;;2.50;82.48;96739.00;5010559;28;101826;-68
2022/03/07 09:03:01;;;;;;;14.00;12.43;;;;;;;2.71;79.38;96744.19;5014541;28;104905;-68
2022/03/07 09:05:29;;;;;;;17.47;12.87;;;;;;;2.88;80.76;96742.88;5031494;28;102713;-68
2022/03/07 09:08:05;;;;;;;28.87;16.80;;;;;;;2.71;76.26;96736.31;5030469;28;103393;-68
2022/03/07 09:10:32;;;;;;;36.37;19.13;;;;;;;2.92;79.99;96744.13;5030385;28;104270;-68
2022/03/07 09:13:01;;;;;;;66.17;26.40;;;;;;;2.93;78.80;96751.00;5033215;28;105651;-68
2022/03/07 09:15:28;;;;;;;108.73;40.10;;;;;;;3.19;76.02;96751.13;5027401;28;105243;-68
2022/03/07 09:17:55;;;;;;;15.77;13.03;;;;;;;2.97;70.43;96746.97;5009661;28;105458;-68
2022/03/07 09:20:23;;;;;;;15.30;12.43;;;;;;;3.09;74.10;96755.94;5010117;28;101929;-68
2022/03/07 09:22:50;;;;;;;19.77;13.10;;;;;;;3.25;74.45;96750.34;5025053;28;105847;-68
2022/03/07 09:25:17;;;;;;;13.83;12.13;;;;;;;3.08;70.21;96762.19;5009619;28;105359;-68
2022/03/07 09:27:56;;;;;;;16.53;12.53;;;;;;;3.14;73.76;96753.53;5024501;28;101810;-68
2022/03/07 09:30:24;;;;;;;15.80;12.97;;;;;;;3.04;70.45;96768.84;5029059;27;103627;-68
2022/03/07 09:32:52;;;;;;;14.83;12.77;;;;;;;3.17;70.01;96761.03;5029333;28;105550;-68
2022/03/07 09:35:19;;;;;;;15.23;12.23;;;;;;;3.09;68.61;96767.25;4996558;28;101929;-68
2022/03/07 09:37:57;;;;;;;16.00;13.80;;;;;;;3.10;68.15;96762.78;5009316;28;105275;-68
2022/03/07 09:40:24;;;;;;;17.27;12.30;;;;;;;3.08;70.17;96772.69;5019838;28;101953;-68
2022/03/07 09:42:57;;;;;;;16.57;12.57;;;;;;;3.39;71.36;96775.69;5029672;28;104968;-68
2022/03/07 09:45:25;;;;;;;15.80;12.90;;;;;;;3.30;67.05;96779.47;5029148;28;106603;-67
2022/03/07 09:47:55;;;;;;;21.03;14.07;;;;;;;3.39;65.21;96771.22;5029410;28;103338;-68
2022/03/07 09:50:22;;;;;;;14.43;12.43;;;;;;;3.60;64.38;96779.00;5029808;28;105623;-70
2022/03/07 09:52:49;;;;;;;19.63;13.17;;;;;;;3.24;64.40;96780.25;5029242;28;104641;-69
2022/03/07 09:55:18;;;;;;;15.50;12.87;;;;;;;3.43;64.82;96782.97;5029010;28;102041;-69
2022/03/07 09:57:48;;;;;;;15.63;12.90;;;;;;;3.63;65.91;96785.66;5032517;28;104894;-69
2022/03/07 10:00:17;;;;;;;15.53;12.70;;;;;;;3.47;62.29;96791.28;5029824;28;101782;-70
2022/03/07 10:03:09;;;;;;;17.00;12.33;;;;;;;3.48;64.41;96787.63;5029613;28;104059;-69
2022/03/07 10:05:38;;;;;;;15.27;11.87;;;;;;;3.36;62.39;96783.94;5029081;28;105385;-69
2022/03/07 10:08:11;;;;;;;19.23;14.23;;;;;;;3.57;63.50;96795.19;5029557;28;101911;-69
2022/03/07 10:10:40;;;;;;;16.50;13.57;;;;;;;3.50;63.45;96791.69;5029287;28;105362;-68
2022/03/07 10:13:09;;;;;;;19.10;14.57;;;;;;;3.82;63.58;96793.63;5028766;28;104076;-68
2022/03/07 10:15:38;;;;;;;31.90;21.77;;;;;;;3.88;62.51;96794.66;5029190;28;102028;-67
2022/03/07 10:18:18;;;;;;;17.87;14.00;;;;;;;3.65;62.84;96804.72;5029351;28;105509;-68
2022/03/07 10:20:50;;;;;;;16.20;12.70;;;;;;;3.71;63.36;96801.28;5033665;28;103156;-68
2022/03/07 10:23:16;;;;;;;15.37;12.43;;;;;;;3.65;63.67;96802.09;5028992;28;105607;-68
2022/03/07 10:25:44;;;;;;;17.30;12.53;;;;;;;4.18;62.83;96801.19;5028721;28;105577;-68
2022/03/07 10:28:15;;;;;;;16.13;12.47;;;;;;;4.20;60.65;96809.72;5029198;28;102010;-68
2022/03/07 10:30:41;;;;;;;14.13;12.37;;;;;;;4.36;61.40;96807.47;5028451;28;104066;-68
2022/03/07 10:33:10;;;;;;;15.47;12.57;;;;;;;4.44;61.08;96806.47;5028570;28;103774;-67
2022/03/07 10:35:50;;;;;;;15.80;13.30;;;;;;;4.51;59.70;96799.38;5028847;28;101897;-67
2022/03/07 10:38:56;;;;;;;16.27;13.10;;;;;;;4.52;59.09;96795.72;5029088;28;104975;-66
2022/03/07 10:41:33;;;;;;;15.93;12.03;;;;;;;4.25;58.15;96802.81;5028351;28;105424;-66
2022/03/07 10:44:02;;;;;;;15.37;12.10;;;;;;;4.50;58.29;96795.13;5031493;28;101806;-65
2022/03/07 10:46:29;;;;;;;15.67;13.13;;;;;;;4.54;57.97;96799.00;5029876;28;103239;-65
2022/03/07 10:49:00;;;;;;;18.20;12.90;;;;;;;4.43;58.54;96805.66;5028487;28;101906;-66
2022/03/07 10:51:29;;;;;;;19.47;13.03;;;;;;;4.76;57.69;96795.13;5028828;28;105605;-66
2022/03/07 10:53:56;;;;;;;17.10;12.57;;;;;;;4.88;56.46;96789.03;5027993;28;104990;-67
2022/03/07 10:56:24;;;;;;;16.27;13.27;;;;;;;5.08;56.80;96797.69;5028550;28;102167;-66
2022/03/07 10:59:26;;;;;;;16.40;13.53;;;;;;;5.08;56.41;96792.44;5028733;28;103701;-66
2022/03/07 11:02:00;;;;;;;17.17;13.77;;;;;;;5.17;56.61;96787.75;5028022;28;105308;-66
2022/03/07 11:04:27;;;;;;;15.57;13.37;;;;;;;4.79;58.07;96789.44;5028624;28;101721;-66
2022/03/07 11:06:56;;;;;;;18.50;14.10;;;;;;;4.92;59.61;96794.69;5031510;28;104900;-66
2022/03/07 11:09:27;;;;;;;16.30;14.50;;;;;;;5.07;58.26;96796.09;5028412;28;101832;-66
2022/03/07 11:12:00;;;;;;;16.37;13.57;;;;;;;5.25;58.11;96795.44;5028451;28;105320;-66
2022/03/07 11:14:28;;;;;;;15.23;13.60;;;;;;;5.24;56.81;96791.97;5027968;28;105381;-66
2022/03/07 11:16:56;;;;;;;21.83;15.53;;;;;;;5.47;55.97;96788.88;5028292;28;101851;-66
2022/03/07 11:19:34;;;;;;;19.07;14.87;;;;;;;5.49;55.03;96792.94;5028381;28;105004;-66
2022/03/07 11:22:03;;;;;;;28.33;16.30;;;;;;;5.14;56.47;96782.91;5029364;28;102697;-66
2022/03/07 11:24:35;;;;;;;21.00;15.80;;;;;;;5.14;56.79;96775.78;5028229;28;103300;-66
2022/03/07 11:27:04;;;;;;;18.17;15.47;;;;;;;5.07;59.37;96772.38;5031256;28;103758;-66
2022/03/07 11:29:43;;;;;;;19.20;15.23;;;;;;;5.02;57.63;96784.56;5028361;28;101799;-66